Time;durP1;ratioP1;P1;durP2;ratioP2;P2;SDS_P1;SDS_P2;PMS_P1;PMS_P2;Temp;Humidity;BMP_temperature;BMP_pressure;BME280_temperature;BME280_humidity;BME280_pressure;Samples;Min_cycle;Max_cycle;Signal;HPM_P1;HPM_P2
2021/08/27 00:01:52;;;;;;;4.10;3.70;;;15.70;99.90;;;;;;4981862;28;20444;-86
2021/08/27 00:04:18;;;;;;;6.07;4.10;;;15.70;99.90;;;;;;4980582;28;20836;-87
2021/08/27 00:06:46;;;;;;;7.40;4.10;;;15.70;99.90;;;;;;4991717;28;20455;-86
2021/08/27 00:09:13;;;;;;;5.57;4.13;;;15.70;99.90;;;;;;4993005;28;20468;-87
2021/08/27 00:11:40;;;;;;;5.37;4.07;;;15.80;99.90;;;;;;4988084;28;20968;-87
2021/08/27 00:14:07;;;;;;;6.70;4.23;;;15.80;99.90;;;;;;4993973;28;20485;-84
2021/08/27 00:16:33;;;;;;;7.57;4.43;;;15.80;99.90;;;;;;4996650;28;20443;-86
2021/08/27 00:19:00;;;;;;;3.80;3.30;;;15.80;99.90;;;;;;4979785;28;20466;-86
2021/08/27 00:21:27;;;;;;;4.93;3.80;;;15.80;99.90;;;;;;4996787;28;20452;-85
2021/08/27 00:23:55;;;;;;;10.10;4.30;;;15.80;99.90;;;;;;4982254;28;20538;-86
2021/08/27 00:26:21;;;;;;;7.77;3.67;;;15.90;99.90;;;;;;4980549;28;20448;-88
2021/08/27 00:28:48;;;;;;;3.93;3.63;;;15.90;99.90;;;;;;4980944;28;20467;-86
2021/08/27 00:31:15;;;;;;;6.70;3.87;;;15.90;99.90;;;;;;4993586;28;20443;-85
2021/08/27 00:33:42;;;;;;;4.90;4.00;;;15.90;99.90;;;;;;4998745;28;20462;-86
2021/08/27 00:36:08;;;;;;;6.60;4.17;;;15.90;99.90;;;;;;4993088;28;20965;-86
2021/08/27 00:38:35;;;;;;;4.70;3.60;;;16.00;99.90;;;;;;4997412;28;20471;-86
2021/08/27 00:41:03;;;;;;;5.90;3.90;;;16.00;99.90;;;;;;4986164;28;20444;-87
2021/08/27 00:43:30;;;;;;;5.83;4.07;;;16.00;99.90;;;;;;4983527;28;20459;-86
2021/08/27 00:45:57;;;;;;;6.50;3.63;;;16.00;99.90;;;;;;4984843;28;20445;-87
2021/08/27 00:48:23;;;;;;;5.80;4.57;;;16.00;99.90;;;;;;4981686;28;20471;-87
2021/08/27 00:50:51;;;;;;;6.47;4.13;;;16.00;99.90;;;;;;4988515;28;20967;-86
2021/08/27 00:53:18;;;;;;;7.83;4.77;;;16.00;99.90;;;;;;4998815;28;20458;-86
2021/08/27 00:55:46;;;;;;;7.03;4.77;;;16.10;99.90;;;;;;4983272;28;20498;-86
2021/08/27 00:58:15;;;;;;;6.53;4.10;;;16.10;99.90;;;;;;4980086;28;20486;-87
2021/08/27 01:00:43;;;;;;;6.83;4.23;;;16.10;99.90;;;;;;4979837;28;20949;-87
2021/08/27 01:03:10;;;;;;;6.10;4.77;;;16.00;99.90;;;;;;4979830;28;20452;-86
2021/08/27 01:05:40;;;;;;;6.50;4.37;;;16.10;99.90;;;;;;4982178;28;20448;-86
2021/08/27 01:08:17;;;;;;;5.93;4.50;;;16.00;99.90;;;;;;4983247;28;20471;-86
2021/08/27 01:10:49;;;;;;;5.40;3.97;;;16.00;99.90;;;;;;4982860;28;20462;-86
2021/08/27 01:13:21;;;;;;;11.10;4.70;;;16.00;99.90;;;;;;4989510;28;20452;-87
2021/08/27 01:15:57;;;;;;;7.00;5.10;;;16.00;99.90;;;;;;4985071;28;20495;-87
2021/08/27 01:18:31;;;;;;;5.97;4.80;;;16.00;99.90;;;;;;4985333;28;20513;-87
2021/08/27 01:21:33;;;;;;;7.20;4.67;;;16.00;99.90;;;;;;4983894;28;20478;-87
2021/08/27 01:24:01;;;;;;;5.90;4.30;;;15.90;99.90;;;;;;4981432;28;20947;-86
2021/08/27 01:26:33;;;;;;;8.03;4.40;;;15.90;99.90;;;;;;4981170;28;20452;-86
2021/08/27 01:29:02;;;;;;;5.40;4.23;;;15.90;99.90;;;;;;4979891;28;20468;-87
2021/08/27 01:31:36;;;;;;;8.47;4.60;;;15.90;99.90;;;;;;4980108;28;20455;-86
2021/08/27 01:34:27;;;;;;;5.23;4.13;;;15.90;99.90;;;;;;4980523;28;20447;-89
2021/08/27 01:36:56;;;;;;;4.90;4.40;;;16.00;99.90;;;;;;4988717;28;20448;-86
2021/08/27 01:39:25;;;;;;;7.43;4.57;;;16.00;99.90;;;;;;4992028;28;20490;-87
2021/08/27 01:41:54;;;;;;;9.17;4.63;;;16.00;99.90;;;;;;4986045;28;20448;-87
2021/08/27 01:44:23;;;;;;;5.40;4.20;;;16.00;99.90;;;;;;4979743;28;20450;-87
2021/08/27 01:46:53;;;;;;;6.67;4.50;;;16.00;99.90;;;;;;4987415;28;20448;-85
2021/08/27 01:49:20;;;;;;;7.40;4.73;;;16.00;99.90;;;;;;4998813;28;20475;-86
2021/08/27 01:51:49;;;;;;;5.17;4.60;;;16.00;99.90;;;;;;5000143;28;20439;-82
2021/08/27 01:54:17;;;;;;;7.50;5.03;;;16.10;99.90;;;;;;4980245;28;20452;-85
2021/08/27 01:56:44;;;;;;;5.77;3.70;;;16.00;99.90;;;;;;4997066;28;20443;-86
2021/08/27 01:59:13;;;;;;;6.57;4.40;;;16.00;99.90;;;;;;4998087;28;20459;-86
2021/08/27 02:01:40;;;;;;;9.17;4.50;;;16.00;99.90;;;;;;4981648;28;20479;-86
2021/08/27 02:04:10;;;;;;;8.37;4.60;;;16.00;99.90;;;;;;4986686;28;20965;-86
2021/08/27 02:06:37;;;;;;;4.33;3.90;;;15.90;99.90;;;;;;4982956;28;20459;-85
2021/08/27 02:09:06;;;;;;;4.67;4.23;;;15.90;99.90;;;;;;4983234;28;20468;-86
2021/08/27 02:11:35;;;;;;;7.03;5.13;;;16.00;99.90;;;;;;4996183;28;20444;-86
2021/08/27 02:14:03;;;;;;;8.03;4.53;;;15.90;99.90;;;;;;4990794;28;20448;-88
2021/08/27 02:16:29;;;;;;;4.50;3.97;;;15.90;99.90;;;;;;4987202;28;20499;-86
2021/08/27 02:18:57;;;;;;;5.43;4.07;;;16.00;99.90;;;;;;4989774;28;20799;-84
2021/08/27 02:21:27;;;;;;;7.53;4.10;;;16.00;99.90;;;;;;4984398;28;20451;-87
2021/08/27 02:23:56;;;;;;;6.50;4.23;;;16.00;99.90;;;;;;4979646;28;20468;-87
2021/08/27 02:26:26;;;;;;;6.60;3.90;;;15.90;99.90;;;;;;4982657;28;20456;-88
2021/08/27 02:28:53;;;;;;;5.57;4.17;;;15.90;99.90;;;;;;4980265;28;20483;-87
2021/08/27 02:31:21;;;;;;;6.70;4.10;;;16.00;99.90;;;;;;4979465;28;20455;-87
2021/08/27 02:33:49;;;;;;;4.87;3.90;;;16.00;99.90;;;;;;4981225;28;20459;-88
2021/08/27 02:36:19;;;;;;;5.37;4.80;;;16.00;99.90;;;;;;4977128;28;20479;-86
2021/08/27 02:38:48;;;;;;;7.00;4.80;;;16.00;99.90;;;;;;4987126;28;20463;-87
2021/08/27 02:41:15;;;;;;;6.27;4.57;;;16.00;99.90;;;;;;4996130;28;20448;-87
2021/08/27 02:43:43;;;;;;;9.30;4.70;;;16.00;99.90;;;;;;4980679;28;20870;-88
2021/08/27 02:46:10;;;;;;;4.47;4.07;;;16.00;99.90;;;;;;4983626;28;20840;-89
2021/08/27 02:48:37;;;;;;;6.37;5.40;;;16.00;99.90;;;;;;4995173;28;20451;-87
2021/08/27 02:51:10;;;;;;;7.30;5.03;;;16.00;99.90;;;;;;4996710;28;20448;-86
2021/08/27 02:53:40;;;;;;;5.43;4.93;;;15.90;99.90;;;;;;4992608;28;20451;-84
2021/08/27 02:56:15;;;;;;;5.83;5.07;;;15.90;99.90;;;;;;4993143;28;20502;-85
2021/08/27 02:58:47;;;;;;;4.70;4.30;;;15.90;99.90;;;;;;4992305;28;20474;-86
2021/08/27 03:01:19;;;;;;;6.33;4.43;;;15.90;99.90;;;;;;4994942;28;20452;-86
2021/08/27 03:04:02;;;;;;;6.40;4.20;;;15.80;99.90;;;;;;4991189;28;20458;-87
2021/08/27 03:06:33;;;;;;;6.50;4.10;;;15.80;99.90;;;;;;4983029;28;20443;-87
2021/08/27 03:09:05;;;;;;;7.17;4.07;;;15.80;99.90;;;;;;4993842;28;20476;-86
2021/08/27 03:11:36;;;;;;;5.50;4.23;;;15.80;99.90;;;;;;4980217;28;20441;-85
2021/08/27 03:14:08;;;;;;;7.30;4.57;;;15.80;99.90;;;;;;4985415;28;20628;-85
2021/08/27 03:16:38;;;;;;;7.53;4.87;;;15.80;99.90;;;;;;4988610;28;20500;-85
2021/08/27 03:19:11;;;;;;;5.43;4.93;;;15.80;99.90;;;;;;4980775;28;20468;-86
2021/08/27 03:21:43;;;;;;;5.50;4.60;;;15.80;99.90;;;;;;4981357;28;20444;-86
2021/08/27 03:24:16;;;;;;;6.33;4.30;;;15.80;99.90;;;;;;4977390;28;20456;-87
2021/08/27 03:26:44;;;;;;;4.70;3.63;;;15.80;99.90;;;;;;4980020;28;20444;-86
2021/08/27 03:29:16;;;;;;;5.53;4.03;;;15.80;99.90;;;;;;4978026;28;20464;-87
2021/08/27 03:31:43;;;;;;;5.67;5.13;;;15.80;99.90;;;;;;4976700;28;20950;-85
2021/08/27 03:34:11;;;;;;;4.90;4.30;;;15.80;99.90;;;;;;4976831;28;20455;-87
2021/08/27 03:36:41;;;;;;;6.70;5.10;;;15.80;99.90;;;;;;4976915;28;20495;-86
2021/08/27 03:39:09;;;;;;;7.20;5.00;;;15.80;99.90;;;;;;4991090;23;20510;-89
2021/08/27 03:41:40;;;;;;;7.43;5.40;;;15.80;99.90;;;;;;4974994;28;20471;-90
2021/08/27 03:44:08;;;;;;;7.53;4.33;;;15.80;99.90;;;;;;4976198;28;20834;-89
2021/08/27 03:46:37;;;;;;;9.67;6.10;;;15.80;99.90;;;;;;4975384;28;20451;-90
2021/08/27 03:49:05;;;;;;;8.03;5.90;;;15.80;99.90;;;;;;4975672;28;20506;-91
2021/08/27 03:51:32;;;;;;;6.93;6.23;;;15.80;99.90;;;;;;4975021;28;20452;-91
2021/08/27 03:54:00;;;;;;;11.70;6.90;;;15.80;99.90;;;;;;4974905;28;20515;-91
2021/08/27 03:56:28;;;;;;;8.27;5.80;;;15.80;99.90;;;;;;4975364;28;20495;-91
2021/08/27 03:58:56;;;;;;;6.27;5.70;;;15.80;99.90;;;;;;4980957;28;20797;-90
2021/08/27 04:01:23;;;;;;;6.70;5.60;;;15.80;99.90;;;;;;4977988;28;20969;-92
2021/08/27 04:03:51;;;;;;;11.90;6.70;;;15.70;99.90;;;;;;4980338;28;20968;-91
2021/08/27 04:06:18;;;;;;;10.00;7.20;;;15.70;99.90;;;;;;4979485;28;20444;-91
2021/08/27 04:08:45;;;;;;;10.60;7.70;;;15.70;99.90;;;;;;4978942;28;20840;-91
2021/08/27 04:11:14;;;;;;;9.33;7.20;;;15.70;99.90;;;;;;4979594;28;21031;-92
2021/08/27 04:13:41;;;;;;;8.80;7.40;;;15.70;99.90;;;;;;4979677;28;20459;-92
2021/08/27 04:16:08;;;;;;;8.63;7.20;;;15.70;99.90;;;;;;4984173;28;20574;-92
2021/08/27 04:18:35;;;;;;;16.20;9.70;;;15.70;99.90;;;;;;4986547;28;20506;-91
2021/08/27 04:21:04;;;;;;;8.33;7.40;;;15.70;99.90;;;;;;4980520;28;20457;-93
2021/08/27 04:23:31;;;;;;;8.40;7.47;;;15.70;99.90;;;;;;4990074;28;20454;-90
2021/08/27 04:25:58;;;;;;;9.10;8.10;;;15.70;99.90;;;;;;4992670;28;20463;-92
2021/08/27 04:28:25;;;;;;;8.27;7.47;;;15.60;99.90;;;;;;4979717;28;20484;-90
2021/08/27 04:30:52;;;;;;;9.47;7.57;;;15.60;99.90;;;;;;4980243;28;20979;-91
2021/08/27 04:33:19;;;;;;;7.87;7.07;;;15.60;99.90;;;;;;4978932;28;20451;-90
2021/08/27 04:35:46;;;;;;;9.60;7.90;;;15.60;99.90;;;;;;4978084;28;20483;-92
2021/08/27 04:38:14;;;;;;;6.90;6.10;;;15.60;99.90;;;;;;4978292;28;20438;-92
2021/08/27 04:40:41;;;;;;;7.90;6.83;;;15.60;99.90;;;;;;4978726;28;20456;-91
2021/08/27 04:43:08;;;;;;;9.10;6.83;;;15.60;99.90;;;;;;4979014;28;20456;-91
2021/08/27 04:45:34;;;;;;;8.43;7.17;;;15.60;99.90;;;;;;4979797;28;20452;-91
2021/08/27 04:48:01;;;;;;;9.23;7.80;;;15.50;99.90;;;;;;4997691;28;20432;-89
2021/08/27 04:50:28;;;;;;;8.10;7.13;;;15.40;99.90;;;;;;4998069;28;20468;-91
2021/08/27 04:52:55;;;;;;;9.20;7.20;;;15.40;99.90;;;;;;4983341;28;20452;-91
2021/08/27 04:55:23;;;;;;;7.00;6.30;;;15.40;99.90;;;;;;4984196;28;20483;-91
2021/08/27 04:57:50;;;;;;;8.63;7.33;;;15.30;99.90;;;;;;4989444;28;20458;-89
2021/08/27 05:00:17;;;;;;;7.90;6.17;;;15.30;99.90;;;;;;4992884;28;20460;-91
2021/08/27 05:02:44;;;;;;;7.73;6.23;;;15.30;99.90;;;;;;4989805;28;20459;-90
2021/08/27 05:05:12;;;;;;;9.17;6.07;;;15.30;99.90;;;;;;4983229;28;20436;-89
2021/08/27 05:07:39;;;;;;;9.97;6.40;;;15.40;99.90;;;;;;4981458;28;20475;-90
2021/08/27 05:10:07;;;;;;;8.13;7.20;;;15.40;99.90;;;;;;4984423;28;20467;-89
2021/08/27 05:12:36;;;;;;;10.40;8.00;;;15.40;99.90;;;;;;4978591;28;20957;-89
2021/08/27 05:15:03;;;;;;;12.00;8.63;;;15.40;99.90;;;;;;4982502;28;20439;-89
2021/08/27 05:17:30;;;;;;;10.53;7.90;;;15.50;99.90;;;;;;4983351;28;20458;-90
2021/08/27 05:19:57;;;;;;;9.30;7.80;;;15.50;99.90;;;;;;4980314;28;21008;-91
2021/08/27 05:22:24;;;;;;;11.47;8.67;;;15.50;99.90;;;;;;4979432;28;20478;-90
2021/08/27 05:24:50;;;;;;;11.17;7.47;;;15.50;99.90;;;;;;4979896;28;20448;-90
2021/08/27 05:27:17;;;;;;;8.53;7.50;;;15.60;99.90;;;;;;4980256;28;20866;-90
2021/08/27 05:29:45;;;;;;;11.20;8.90;;;15.60;99.90;;;;;;4981112;28;20464;-91
2021/08/27 05:32:12;;;;;;;9.73;8.73;;;15.60;99.90;;;;;;4985974;28;20452;-89
2021/08/27 05:34:39;;;;;;;9.77;8.63;;;15.60;99.90;;;;;;4990790;28;20447;-88
2021/08/27 05:37:06;;;;;;;11.00;9.90;;;15.70;99.90;;;;;;4994896;28;20834;-88
2021/08/27 05:39:33;;;;;;;10.13;9.10;;;15.70;99.90;;;;;;4992056;28;20488;-89
2021/08/27 05:42:00;;;;;;;11.60;9.20;;;15.80;99.90;;;;;;4990583;28;20424;-91
2021/08/27 05:44:27;;;;;;;11.30;10.30;;;15.90;99.90;;;;;;4991481;28;20460;-89
2021/08/27 05:46:56;;;;;;;11.47;9.93;;;15.90;99.90;;;;;;4984957;28;20448;-90
2021/08/27 05:49:23;;;;;;;11.37;10.17;;;16.00;99.90;;;;;;4985671;28;21020;-90
2021/08/27 05:51:50;;;;;;;11.90;10.70;;;16.00;99.90;;;;;;4982329;28;20456;-91
2021/08/27 05:54:17;;;;;;;11.57;10.57;;;16.00;99.90;;;;;;4984267;28;20452;-92
2021/08/27 05:56:45;;;;;;;10.90;9.90;;;16.00;99.90;;;;;;4980488;28;20483;-92
2021/08/27 05:59:12;;;;;;;10.57;9.53;;;16.10;99.90;;;;;;4980896;28;20468;-92
2021/08/27 06:01:38;;;;;;;10.40;9.40;;;16.20;99.90;;;;;;4983580;28;20449;-89
2021/08/27 06:04:07;;;;;;;9.40;8.53;;;16.20;99.90;;;;;;4982299;28;20453;-91
2021/08/27 06:06:34;;;;;;;11.17;8.50;;;16.30;99.90;;;;;;4977386;28;20448;-91
2021/08/27 06:09:01;;;;;;;11.13;9.50;;;16.50;99.90;;;;;;4986162;28;20460;-89
2021/08/27 06:11:27;;;;;;;11.07;9.87;;;16.60;99.90;;;;;;4979422;28;20856;-91
2021/08/27 06:13:54;;;;;;;9.60;8.70;;;16.80;99.90;;;;;;4983196;28;20818;-91
2021/08/27 06:16:21;;;;;;;9.70;7.93;;;17.10;99.90;;;;;;4982851;28;20487;-92
2021/08/27 06:18:48;;;;;;;9.70;8.80;;;17.30;99.90;;;;;;4981894;28;20478;-88
2021/08/27 06:21:16;;;;;;;10.07;7.97;;;17.70;99.90;;;;;;4981909;28;20458;-88
2021/08/27 06:23:42;;;;;;;10.20;9.23;;;18.00;99.90;;;;;;4978011;28;20463;-88
2021/08/27 06:26:09;;;;;;;9.10;8.30;;;18.00;99.90;;;;;;4982770;28;20452;-88
2021/08/27 06:28:37;;;;;;;8.07;7.47;;;18.00;99.90;;;;;;4977718;28;20471;-88
2021/08/27 06:31:04;;;;;;;10.10;6.90;;;18.00;99.90;;;;;;4977540;28;20455;-88
2021/08/27 06:33:32;;;;;;;7.83;7.13;;;18.10;99.90;;;;;;4978957;28;20481;-91
2021/08/27 06:35:59;;;;;;;7.70;6.90;;;18.60;99.90;;;;;;4988692;28;20459;-89
2021/08/27 06:38:28;;;;;;;8.00;6.10;;;19.50;99.90;;;;;;4984057;28;20459;-89
2021/08/27 06:40:57;;;;;;;6.73;6.07;;;20.60;99.90;;;;;;4978572;28;20438;-91
2021/08/27 06:43:27;;;;;;;5.90;5.40;;;21.90;98.20;;;;;;4978291;28;20445;-91
2021/08/27 06:45:54;;;;;;;5.27;4.77;;;22.80;94.60;;;;;;4985514;28;20667;-91
2021/08/27 06:48:21;;;;;;;6.30;4.97;;;23.20;92.40;;;;;;4985918;28;20951;-90
2021/08/27 06:50:48;;;;;;;5.90;5.10;;;22.90;91.90;;;;;;4998433;28;20534;-88
2021/08/27 06:53:15;;;;;;;5.37;4.53;;;22.40;91.70;;;;;;4987136;28;20453;-90
2021/08/27 06:55:43;;;;;;;4.63;4.00;;;21.70;92.80;;;;;;4979663;28;20489;-90
2021/08/27 06:58:10;;;;;;;8.97;4.90;;;21.00;93.60;;;;;;4982071;28;20417;-89
2021/08/27 07:00:38;;;;;;;8.30;5.40;;;20.50;94.80;;;;;;4980082;28;20948;-91
2021/08/27 07:03:05;;;;;;;12.97;5.17;;;20.50;95.70;;;;;;4978926;28;20539;-91
2021/08/27 07:05:32;;;;;;;5.43;4.40;;;20.40;95.30;;;;;;4977605;28;20455;-90
2021/08/27 07:08:00;;;;;;;6.63;4.60;;;20.50;95.40;;;;;;4977798;28;20452;-91
2021/08/27 07:10:27;;;;;;;10.07;6.10;;;20.30;95.50;;;;;;4978752;28;20469;-90
2021/08/27 07:12:55;;;;;;;5.77;4.20;;;19.80;96.10;;;;;;4983526;28;20442;-90
2021/08/27 07:15:22;;;;;;;4.73;3.80;;;19.40;96.80;;;;;;4981092;28;20451;-91
2021/08/27 07:17:49;;;;;;;6.27;4.10;;;19.30;96.90;;;;;;4991552;28;20485;-90
2021/08/27 07:20:17;;;;;;;6.63;4.70;;;19.10;97.20;;;;;;4988814;28;20474;-89
2021/08/27 07:22:44;;;;;;;8.53;4.70;;;19.00;97.50;;;;;;4983527;28;20437;-90
2021/08/27 07:25:12;;;;;;;5.57;3.87;;;19.00;97.70;;;;;;4980598;28;20439;-90
2021/08/27 07:27:40;;;;;;;10.30;4.60;;;19.30;97.50;;;;;;4979323;28;20442;-90
2021/08/27 07:30:10;;;;;;;6.37;4.00;;;19.50;97.10;;;;;;4980910;28;20478;-89
2021/08/27 07:32:37;;;;;;;4.83;4.10;;;19.50;96.70;;;;;;4981568;28;20459;-89
2021/08/27 07:35:05;;;;;;;4.93;4.53;;;19.40;96.80;;;;;;4988532;28;20941;-90
2021/08/27 07:37:32;;;;;;;4.87;4.37;;;19.30;97.30;;;;;;4995188;28;20494;-90
2021/08/27 07:39:59;;;;;;;5.40;3.93;;;19.40;96.90;;;;;;4995171;28;20840;-90
2021/08/27 07:42:26;;;;;;;6.17;3.70;;;19.90;96.30;;;;;;4985316;28;20432;-91
2021/08/27 07:44:53;;;;;;;4.03;3.37;;;21.30;94.10;;;;;;4987694;28;20447;-91
2021/08/27 07:47:22;;;;;;;3.50;2.80;;;22.80;90.80;;;;;;4977996;28;20444;-92
2021/08/27 07:49:48;;;;;;;4.77;3.60;;;22.70;88.50;;;;;;4978045;28;20537;-91
2021/08/27 07:52:15;;;;;;;3.77;3.10;;;22.50;88.50;;;;;;4982788;28;20465;-91
2021/08/27 07:54:42;;;;;;;5.00;2.17;;;22.80;87.80;;;;;;4979364;28;20450;-91
2021/08/27 07:57:09;;;;;;;3.43;2.50;;;22.20;86.00;;;;;;4979348;28;20865;-90
2021/08/27 07:59:36;;;;;;;5.73;3.20;;;21.60;86.10;;;;;;4979734;28;20481;-91
2021/08/27 08:02:03;;;;;;;4.93;3.30;;;21.10;88.10;;;;;;4980393;28;20444;-91
2021/08/27 08:04:31;;;;;;;7.20;3.80;;;20.80;89.90;;;;;;4978985;28;20448;-92
2021/08/27 08:06:57;;;;;;;2.90;2.27;;;20.70;90.10;;;;;;4979535;28;20446;-90
2021/08/27 08:09:24;;;;;;;2.93;2.37;;;20.70;90.10;;;;;;4978888;28;20544;-91
2021/08/27 08:11:51;;;;;;;6.20;2.57;;;20.70;90.10;;;;;;4978615;28;20451;-92
2021/08/27 08:14:18;;;;;;;3.50;1.97;;;20.60;90.60;;;;;;4978442;28;20453;-91
2021/08/27 08:16:45;;;;;;;2.67;2.20;;;20.70;90.50;;;;;;4976382;28;21014;-91
2021/08/27 08:19:12;;;;;;;3.10;2.37;;;20.60;90.00;;;;;;4976584;28;20479;-90
2021/08/27 08:21:40;;;;;;;5.77;2.63;;;21.40;88.10;;;;;;4975563;28;20440;-90
2021/08/27 08:24:07;;;;;;;4.67;2.50;;;21.30;88.40;;;;;;4977130;28;20456;-91
2021/08/27 08:26:34;;;;;;;3.30;3.00;;;21.10;89.90;;;;;;4975582;28;20473;-90
2021/08/27 08:29:01;;;;;;;4.87;3.00;;;21.20;87.90;;;;;;4975577;28;20472;-92
2021/08/27 08:31:29;;;;;;;7.80;2.70;;;21.20;88.30;;;;;;4977908;28;20460;-92
2021/08/27 08:33:56;;;;;;;4.70;2.17;;;22.00;87.70;;;;;;4977614;28;20458;-90
2021/08/27 08:36:23;;;;;;;5.30;2.33;;;22.90;83.80;;;;;;4975873;28;20454;-90
2021/08/27 08:38:53;;;;;;;4.70;2.53;;;22.90;82.60;;;;;;4978725;28;20540;-90
2021/08/27 08:41:20;;;;;;;2.90;2.10;;;22.30;83.10;;;;;;4976616;28;20462;-91
2021/08/27 08:43:48;;;;;;;4.23;2.17;;;23.00;82.40;;;;;;4976331;28;20886;-91
2021/08/27 08:46:15;;;;;;;3.57;2.20;;;25.50;76.70;;;;;;4976748;28;20436;-91
2021/08/27 08:48:45;;;;;;;2.10;1.70;;;26.90;70.60;;;;;;4992840;28;20476;-90
2021/08/27 08:51:12;;;;;;;4.57;3.37;;;28.80;64.60;;;;;;5001100;28;20448;-89
2021/08/27 08:53:40;;;;;;;2.23;1.50;;;27.90;62.30;;;;;;4998883;28;20454;-91
2021/08/27 08:56:10;;;;;;;5.13;2.10;;;28.70;62.40;;;;;;4980806;28;20450;-91
2021/08/27 08:58:37;;;;;;;2.97;1.90;;;29.70;58.10;;;;;;4979206;28;20479;-91
2021/08/27 09:01:05;;;;;;;4.63;1.43;;;28.90;56.90;;;;;;4981273;28;20463;-90
2021/08/27 09:03:32;;;;;;;4.20;1.97;;;27.50;58.80;;;;;;4983115;28;20451;-90
2021/08/27 09:05:59;;;;;;;2.30;1.90;;;26.10;61.10;;;;;;4983468;28;20462;-91
2021/08/27 09:08:33;;;;;;;5.27;2.17;;;24.90;64.50;;;;;;4983555;28;20468;-91
2021/08/27 09:11:01;;;;;;;4.73;2.13;;;24.20;66.80;;;;;;4983267;28;20494;-90
2021/08/27 09:13:32;;;;;;;2.93;1.93;;;23.60;69.50;;;;;;4984194;28;20452;-91
2021/08/27 09:16:06;;;;;;;6.13;1.93;;;23.10;70.90;;;;;;4983394;28;20451;-91
2021/08/27 09:18:38;;;;;;;5.40;2.37;;;24.20;71.10;;;;;;4983552;28;20554;-91
2021/08/27 09:21:27;;;;;;;4.77;2.00;;;27.00;64.70;;;;;;4982734;28;21000;-90
2021/08/27 09:24:13;;;;;;;3.07;1.60;;;29.70;57.80;;;;;;4983832;28;20455;-91
2021/08/27 09:26:41;;;;;;;2.80;1.90;;;30.60;53.70;;;;;;4984686;28;20505;-91
2021/08/27 09:29:10;;;;;;;3.87;1.83;;;28.90;54.50;;;;;;4985533;28;20470;-91
2021/08/27 09:31:39;;;;;;;1.90;1.40;;;27.40;56.30;;;;;;4983602;28;20439;-90
2021/08/27 09:34:06;;;;;;;2.83;1.87;;;26.20;57.90;;;;;;4984200;28;20450;-91
2021/08/27 09:36:34;;;;;;;1.90;1.50;;;27.20;59.00;;;;;;4987347;28;20829;-91
2021/08/27 09:39:03;;;;;;;2.33;1.43;;;29.40;54.70;;;;;;5005342;22;20669;-87
2021/08/27 09:41:30;;;;;;;3.37;1.60;;;30.60;50.60;;;;;;4989718;28;20448;-89
2021/08/27 09:43:58;;;;;;;1.97;1.40;;;31.90;49.90;;;;;;4999920;28;20487;-88
2021/08/27 09:46:32;;;;;;;3.73;1.63;;;33.60;47.50;;;;;;4991781;28;20478;-89
2021/08/27 09:48:59;;;;;;;3.47;2.03;;;34.70;44.10;;;;;;4999694;28;20470;-88
2021/08/27 09:51:43;;;;;;;4.07;2.10;;;33.10;43.90;;;;;;4990403;28;20499;-88
2021/08/27 09:54:10;;;;;;;1.97;1.77;;;30.70;47.20;;;;;;4991079;28;20466;-89
2021/08/27 09:56:47;;;;;;;3.40;2.10;;;28.40;51.10;;;;;;4999470;28;20431;-88
2021/08/27 09:59:14;;;;;;;5.87;2.07;;;26.90;54.20;;;;;;4992543;28;20470;-89
2021/08/27 10:01:50;;;;;;;5.67;4.13;;;25.90;56.20;;;;;;4989666;28;20446;-87
2021/08/27 10:04:18;;;;;;;9.83;2.43;;;26.30;57.00;;;;;;4984054;28;20453;-88
2021/08/27 10:06:46;;;;;;;3.90;2.53;;;26.70;55.90;;;;;;4985141;28;20468;-87
2021/08/27 10:09:13;;;;;;;2.70;1.53;;;28.10;54.20;;;;;;4987993;28;20810;-87
2021/08/27 10:11:40;;;;;;;2.50;1.77;;;29.40;51.70;;;;;;4982453;28;20448;-88
2021/08/27 10:14:07;;;;;;;5.23;2.80;;;30.40;49.10;;;;;;4983135;28;20458;-88
2021/08/27 10:16:34;;;;;;;3.13;1.73;;;31.40;46.90;;;;;;4982823;28;20459;-89
2021/08/27 10:19:02;;;;;;;1.70;1.50;;;29.50;47.30;;;;;;4989172;28;20451;-88
2021/08/27 10:21:31;;;;;;;2.93;1.70;;;27.50;50.20;;;;;;4984687;28;20450;-86
2021/08/27 10:23:58;;;;;;;4.30;1.87;;;26.10;52.00;;;;;;4979366;28;20448;-88
2021/08/27 10:26:27;;;;;;;4.90;4.47;;;25.20;53.60;;;;;;4979200;28;20440;-87
2021/08/27 10:28:57;;;;;;;14.40;13.00;;;25.10;55.00;;;;;;4991796;28;20467;-88
2021/08/27 10:31:40;;;;;;;2.57;2.37;;;27.10;53.40;;;;;;4999387;28;20558;-90
2021/08/27 10:34:08;;;;;;;3.10;2.10;;;28.80;51.40;;;;;;4988116;28;20443;-88
2021/08/27 10:36:52;;;;;;;3.93;2.17;;;30.80;49.10;;;;;;4983770;28;20443;-87
2021/08/27 10:39:40;;;;;;;5.10;2.10;;;30.40;47.80;;;;;;4983957;28;20467;-87
2021/08/27 10:42:08;;;;;;;5.87;1.90;;;31.60;46.90;;;;;;4989863;28;20456;-88
2021/08/27 10:44:46;;;;;;;2.93;1.90;;;33.10;43.20;;;;;;4989885;28;20455;-88
2021/08/27 10:47:17;;;;;;;2.47;1.80;;;33.40;41.90;;;;;;4991150;28;20471;-89
2021/08/27 10:49:59;;;;;;;2.87;1.50;;;31.40;43.80;;;;;;4988846;28;20457;-84
2021/08/27 10:52:37;;;;;;;3.93;2.50;;;29.20;47.40;;;;;;4987419;28;20455;-86
2021/08/27 10:55:18;;;;;;;3.10;2.03;;;27.10;51.70;;;;;;4988678;28;20455;-83
2021/08/27 10:57:48;;;;;;;3.03;2.47;;;25.60;54.90;;;;;;4988469;28;21004;-85
2021/08/27 11:00:29;;;;;;;3.53;2.90;;;24.40;57.00;;;;;;4981888;28;20464;-86
2021/08/27 11:02:56;;;;;;;4.47;2.60;;;23.60;58.40;;;;;;4982564;28;20444;-84
2021/08/27 11:05:42;;;;;;;3.90;2.20;;;23.00;59.50;;;;;;4980184;28;20455;-86
2021/08/27 11:08:11;;;;;;;4.80;2.90;;;22.60;60.90;;;;;;4983192;28;20486;-85
2021/08/27 11:10:39;;;;;;;5.50;2.80;;;22.30;62.20;;;;;;4985820;28;21003;-85
2021/08/27 11:13:16;;;;;;;6.67;2.90;;;21.90;65.20;;;;;;4985578;28;20459;-85
2021/08/27 11:15:43;;;;;;;4.47;2.93;;;21.70;68.00;;;;;;4985079;28;20543;-84
2021/08/27 11:18:24;;;;;;;6.23;3.70;;;21.50;70.30;;;;;;4983331;28;20492;-85
2021/08/27 11:20:54;;;;;;;3.83;2.70;;;21.20;71.30;;;;;;4988201;28;20444;-88
2021/08/27 11:23:21;;;;;;;4.30;3.27;;;21.00;72.30;;;;;;4992076;28;20464;-83
2021/08/27 11:26:05;;;;;;;3.10;2.80;;;20.90;71.70;;;;;;4998147;28;20450;-84
2021/08/27 11:28:33;;;;;;;6.00;3.00;;;20.80;71.00;;;;;;4997601;28;20434;-84
2021/08/27 11:31:11;;;;;;;4.30;3.47;;;20.70;70.20;;;;;;4984063;28;20447;-85
2021/08/27 11:33:53;;;;;;;4.77;2.37;;;20.70;70.20;;;;;;4979043;28;20458;-85
2021/08/27 11:36:23;;;;;;;5.53;3.83;;;20.70;70.90;;;;;;4986389;28;20450;-85
2021/08/27 11:38:56;;;;;;;4.10;2.97;;;20.80;70.70;;;;;;4987396;28;20498;-84
2021/08/27 11:41:24;;;;;;;4.33;3.93;;;21.00;70.90;;;;;;4990343;28;20480;-85
2021/08/27 11:44:09;;;;;;;6.53;3.30;;;21.40;70.90;;;;;;4988929;28;20424;-85
2021/08/27 11:46:37;;;;;;;4.27;3.33;;;22.10;69.30;;;;;;4993007;28;20452;-85
2021/08/27 11:49:11;;;;;;;6.10;4.60;;;22.70;67.20;;;;;;4981812;28;20526;-85
2021/08/27 11:51:46;;;;;;;7.23;5.40;;;23.90;65.40;;;;;;4982449;28;20466;-85
2021/08/27 11:54:21;;;;;;;6.70;5.03;;;24.50;61.80;;;;;;4984439;28;20464;-85
2021/08/27 11:56:52;;;;;;;7.87;3.80;;;24.50;61.20;;;;;;4985819;28;20481;-85
2021/08/27 11:59:26;;;;;;;6.87;3.40;;;24.00;61.70;;;;;;4979025;28;20498;-84
2021/08/27 12:01:54;;;;;;;5.97;3.10;;;23.30;63.30;;;;;;4993796;28;20457;-83
2021/08/27 12:04:29;;;;;;;5.67;3.47;;;22.70;65.60;;;;;;4993065;28;20513;-85
2021/08/27 12:07:08;;;;;;;4.10;3.10;;;22.10;67.70;;;;;;4987807;28;20445;-85
2021/08/27 12:09:35;;;;;;;4.00;2.77;;;21.70;68.90;;;;;;4993301;28;20465;-86
2021/08/27 12:12:02;;;;;;;4.67;2.83;;;21.30;70.50;;;;;;4984402;28;20451;-85
2021/08/27 12:14:51;;;;;;;4.70;2.93;;;21.20;70.60;;;;;;4980069;28;20449;-85
2021/08/27 12:17:22;;;;;;;5.30;3.60;;;21.20;69.40;;;;;;4980042;28;20455;-84
2021/08/27 12:19:50;;;;;;;3.00;2.40;;;21.10;69.20;;;;;;4979709;28;20471;-90
2021/08/27 12:22:24;;;;;;;5.97;2.10;;;21.70;68.60;;;;;;4982769;28;20445;-91
2021/08/27 12:24:53;;;;;;;2.37;2.07;;;23.80;65.80;;;;;;4985748;28;20442;-85
2021/08/27 12:27:21;;;;;;;3.80;2.60;;;25.00;60.90;;;;;;4986644;28;20463;-86
2021/08/27 12:30:04;;;;;;;4.40;2.70;;;24.50;61.60;;;;;;4988479;28;20481;-84
2021/08/27 12:32:31;;;;;;;4.93;2.60;;;23.60;64.60;;;;;;4985551;28;20435;-84
2021/08/27 12:35:00;;;;;;;4.30;2.67;;;23.00;66.80;;;;;;4990102;28;20466;-84
2021/08/27 12:37:29;;;;;;;5.20;3.00;;;22.60;68.50;;;;;;4988946;28;20500;-83
2021/08/27 12:39:55;;;;;;;3.77;2.17;;;22.20;68.40;;;;;;4990551;28;20472;-86
2021/08/27 12:42:22;;;;;;;3.50;2.30;;;22.10;69.60;;;;;;4994985;28;20441;-85
2021/08/27 12:45:10;;;;;;;2.93;2.00;;;23.00;69.00;;;;;;4987409;28;20449;-84
2021/08/27 12:47:38;;;;;;;3.37;2.03;;;23.70;65.80;;;;;;4994533;28;20441;-84
2021/08/27 12:50:09;;;;;;;5.30;1.80;;;25.80;62.70;;;;;;4995011;28;20495;-83
2021/08/27 12:52:38;;;;;;;2.17;1.93;;;28.30;56.10;;;;;;4990435;28;20463;-82
2021/08/27 12:55:19;;;;;;;3.47;1.70;;;30.80;51.70;;;;;;4992360;28;20514;-84
2021/08/27 12:57:50;;;;;;;4.37;2.60;;;32.20;47.60;;;;;;4989301;28;20487;-82